sensor_id;sensor_type;location;lat;lon;timestamp;temperature;humidity
10875;DHT22;5490;52.200;8.786;2022-07-06T00:01:55;17.80;99.90
10875;DHT22;5490;52.200;8.786;2022-07-06T00:07:25;17.80;99.90
10875;DHT22;5490;52.200;8.786;2022-07-06T00:10:14;17.70;99.90
10875;DHT22;5490;52.200;8.786;2022-07-06T00:12:42;17.70;99.90
10875;DHT22;5490;52.200;8.786;2022-07-06T00:15:48;17.70;99.90
10875;DHT22;5490;52.200;8.786;2022-07-06T00:18:35;17.70;99.90
10875;DHT22;5490;52.200;8.786;2022-07-06T00:21:06;17.70;99.90
10875;DHT22;5490;52.200;8.786;2022-07-06T00:23:33;17.60;99.90
10875;DHT22;5490;52.200;8.786;2022-07-06T00:29:26;17.60;99.90
10875;DHT22;5490;52.200;8.786;2022-07-06T00:31:53;17.60;99.90
10875;DHT22;5490;52.200;8.786;2022-07-06T00:34:19;17.60;99.90
10875;DHT22;5490;52.200;8.786;2022-07-06T00:37:07;17.50;99.90
10875;DHT22;5490;52.200;8.786;2022-07-06T00:40:12;17.50;99.90
10875;DHT22;5490;52.200;8.786;2022-07-06T00:42:43;17.40;99.90
10875;DHT22;5490;52.200;8.786;2022-07-06T00:45:23;17.40;99.90
10875;DHT22;5490;52.200;8.786;2022-07-06T00:51:03;17.40;99.90
10875;DHT22;5490;52.200;8.786;2022-07-06T00:54:04;17.40;99.90
10875;DHT22;5490;52.200;8.786;2022-07-06T00:56:34;17.40;99.90
10875;DHT22;5490;52.200;8.786;2022-07-06T00:59:28;17.30;99.90
10875;DHT22;5490;52.200;8.786;2022-07-06T01:05:29;17.30;99.90
10875;DHT22;5490;52.200;8.786;2022-07-06T01:07:57;17.20;99.90
10875;DHT22;5490;52.200;8.786;2022-07-06T01:11:05;17.20;99.90
10875;DHT22;5490;52.200;8.786;2022-07-06T01:13:50;17.20;99.90
10875;DHT22;5490;52.200;8.786;2022-07-06T01:16:17;17.20;99.90
10875;DHT22;5490;52.200;8.786;2022-07-06T01:18:59;17.10;99.90
10875;DHT22;5490;52.200;8.786;2022-07-06T01:21:48;17.10;99.90
10875;DHT22;5490;52.200;8.786;2022-07-06T01:24:15;17.10;99.90
10875;DHT22;5490;52.200;8.786;2022-07-06T01:26:42;17.10;99.90
10875;DHT22;5490;52.200;8.786;2022-07-06T01:29:09;17.10;99.90
10875;DHT22;5490;52.200;8.786;2022-07-06T01:31:49;17.20;99.90
10875;DHT22;5490;52.200;8.786;2022-07-06T01:34:17;17.10;99.90
10875;DHT22;5490;52.200;8.786;2022-07-06T01:37:40;17.20;99.90
10875;DHT22;5490;52.200;8.786;2022-07-06T01:40:14;17.10;99.90
10875;DHT22;5490;52.200;8.786;2022-07-06T01:42:40;17.00;99.90
10875;DHT22;5490;52.200;8.786;2022-07-06T01:45:09;17.00;99.90
10875;DHT22;5490;52.200;8.786;2022-07-06T01:50:52;17.00;99.90
10875;DHT22;5490;52.200;8.786;2022-07-06T01:53:31;16.90;99.90
10875;DHT22;5490;52.200;8.786;2022-07-06T01:56:34;16.90;99.90
10875;DHT22;5490;52.200;8.786;2022-07-06T01:59:17;16.80;99.90
10875;DHT22;5490;52.200;8.786;2022-07-06T02:01:49;16.80;99.90
10875;DHT22;5490;52.200;8.786;2022-07-06T02:04:16;16.80;99.90
10875;DHT22;5490;52.200;8.786;2022-07-06T02:06:47;16.80;99.90
10875;DHT22;5490;52.200;8.786;2022-07-06T02:09:40;16.90;99.90
10875;DHT22;5490;52.200;8.786;2022-07-06T02:12:38;16.80;99.90
10875;DHT22;5490;52.200;8.786;2022-07-06T02:16:00;16.80;99.90
10875;DHT22;5490;52.200;8.786;2022-07-06T02:18:35;16.90;99.90
10875;DHT22;5490;52.200;8.786;2022-07-06T02:21:05;16.90;99.90
10875;DHT22;5490;52.200;8.786;2022-07-06T02:27:01;16.90;99.90
10875;DHT22;5490;52.200;8.786;2022-07-06T02:32:50;16.80;99.90
10875;DHT22;5490;52.200;8.786;2022-07-06T02:35:27;16.90;99.90
10875;DHT22;5490;52.200;8.786;2022-07-06T02:37:54;16.80;99.90
10875;DHT22;5490;52.200;8.786;2022-07-06T02:40:44;16.80;99.90
10875;DHT22;5490;52.200;8.786;2022-07-06T02:43:54;16.80;99.90
10875;DHT22;5490;52.200;8.786;2022-07-06T02:46:37;16.80;99.90
10875;DHT22;5490;52.200;8.786;2022-07-06T02:49:37;16.70;99.90
10875;DHT22;5490;52.200;8.786;2022-07-06T02:52:13;16.80;99.90
10875;DHT22;5490;52.200;8.786;2022-07-06T02:54:44;16.80;99.90
10875;DHT22;5490;52.200;8.786;2022-07-06T02:57:11;16.80;99.90
10875;DHT22;5490;52.200;8.786;2022-07-06T02:59:44;16.80;99.90
10875;DHT22;5490;52.200;8.786;2022-07-06T03:02:29;16.80;99.90
10875;DHT22;5490;52.200;8.786;2022-07-06T03:05:28;16.80;99.90
10875;DHT22;5490;52.200;8.786;2022-07-06T03:07:57;16.80;99.90
10875;DHT22;5490;52.200;8.786;2022-07-06T03:13:53;16.80;99.90
10875;DHT22;5490;52.200;8.786;2022-07-06T03:16:22;16.80;99.90
10875;DHT22;5490;52.200;8.786;2022-07-06T03:19:21;16.80;99.90
10875;DHT22;5490;52.200;8.786;2022-07-06T03:22:13;16.80;99.90
10875;DHT22;5490;52.200;8.786;2022-07-06T03:24:41;16.80;99.90
10875;DHT22;5490;52.200;8.786;2022-07-06T03:27:32;16.80;99.90
10875;DHT22;5490;52.200;8.786;2022-07-06T03:30:22;16.80;99.90
10875;DHT22;5490;52.200;8.786;2022-07-06T03:33:09;16.80;99.90
10875;DHT22;5490;52.200;8.786;2022-07-06T03:36:29;16.80;99.90
10875;DHT22;5490;52.200;8.786;2022-07-06T03:39:08;16.80;99.90
10875;DHT22;5490;52.200;8.786;2022-07-06T03:41:36;16.80;99.90
10875;DHT22;5490;52.200;8.786;2022-07-06T03:44:03;16.80;99.90
10875;DHT22;5490;52.200;8.786;2022-07-06T03:46:51;16.80;99.90
10875;DHT22;5490;52.200;8.786;2022-07-06T03:49:54;16.80;99.90
10875;DHT22;5490;52.200;8.786;2022-07-06T03:52:22;16.80;99.90
10875;DHT22;5490;52.200;8.786;2022-07-06T03:54:50;16.80;99.90
10875;DHT22;5490;52.200;8.786;2022-07-06T03:57:25;16.80;99.90
10875;DHT22;5490;52.200;8.786;2022-07-06T04:00:16;16.80;99.90
10875;DHT22;5490;52.200;8.786;2022-07-06T04:03:02;16.80;99.90
10875;DHT22;5490;52.200;8.786;2022-07-06T04:05:34;16.80;99.90
10875;DHT22;5490;52.200;8.786;2022-07-06T04:08:01;16.80;99.90
10875;DHT22;5490;52.200;8.786;2022-07-06T04:10:48;16.70;99.90
10875;DHT22;5490;52.200;8.786;2022-07-06T04:13:30;16.70;99.90
10875;DHT22;5490;52.200;8.786;2022-07-06T04:16:15;16.70;99.90
10875;DHT22;5490;52.200;8.786;2022-07-06T04:18:44;16.70;99.90
10875;DHT22;5490;52.200;8.786;2022-07-06T04:21:13;16.70;99.90
10875;DHT22;5490;52.200;8.786;2022-07-06T04:24:28;16.70;99.90
10875;DHT22;5490;52.200;8.786;2022-07-06T04:27:07;16.60;99.90
10875;DHT22;5490;52.200;8.786;2022-07-06T04:29:35;16.60;99.90
10875;DHT22;5490;52.200;8.786;2022-07-06T04:35:12;16.60;99.90
10875;DHT22;5490;52.200;8.786;2022-07-06T04:38:03;16.60;99.90
10875;DHT22;5490;52.200;8.786;2022-07-06T04:40:51;16.50;99.90
10875;DHT22;5490;52.200;8.786;2022-07-06T04:43:39;16.50;99.90
10875;DHT22;5490;52.200;8.786;2022-07-06T04:46:07;16.50;99.90
10875;DHT22;5490;52.200;8.786;2022-07-06T04:48:38;16.50;99.90
10875;DHT22;5490;52.200;8.786;2022-07-06T04:51:07;16.60;99.90
10875;DHT22;5490;52.200;8.786;2022-07-06T04:53:35;16.60;99.90
10875;DHT22;5490;52.200;8.786;2022-07-06T04:56:02;16.60;99.90
10875;DHT22;5490;52.200;8.786;2022-07-06T04:58:29;16.70;99.90
10875;DHT22;5490;52.200;8.786;2022-07-06T05:01:06;16.70;99.90
10875;DHT22;5490;52.200;8.786;2022-07-06T05:03:41;16.80;99.90
10875;DHT22;5490;52.200;8.786;2022-07-06T05:06:39;16.90;99.90
10875;DHT22;5490;52.200;8.786;2022-07-06T05:09:14;17.00;99.90
10875;DHT22;5490;52.200;8.786;2022-07-06T05:12:12;17.00;99.90
10875;DHT22;5490;52.200;8.786;2022-07-06T05:14:49;17.10;99.90
10875;DHT22;5490;52.200;8.786;2022-07-06T05:17:37;17.10;99.90
10875;DHT22;5490;52.200;8.786;2022-07-06T05:20:06;17.20;99.90
10875;DHT22;5490;52.200;8.786;2022-07-06T05:23:00;17.20;99.90
10875;DHT22;5490;52.200;8.786;2022-07-06T05:25:53;17.20;99.90
10875;DHT22;5490;52.200;8.786;2022-07-06T05:28:27;17.20;99.90
10875;DHT22;5490;52.200;8.786;2022-07-06T05:30:53;17.30;99.90
10875;DHT22;5490;52.200;8.786;2022-07-06T05:33:41;17.20;99.90
10875;DHT22;5490;52.200;8.786;2022-07-06T05:36:15;17.30;99.90
10875;DHT22;5490;52.200;8.786;2022-07-06T05:38:42;17.30;99.90
10875;DHT22;5490;52.200;8.786;2022-07-06T05:41:29;17.30;99.90
10875;DHT22;5490;52.200;8.786;2022-07-06T05:43:56;17.30;99.90
10875;DHT22;5490;52.200;8.786;2022-07-06T05:46:24;17.40;99.90
10875;DHT22;5490;52.200;8.786;2022-07-06T05:49:00;17.50;99.90
10875;DHT22;5490;52.200;8.786;2022-07-06T05:51:44;17.50;99.90
10875;DHT22;5490;52.200;8.786;2022-07-06T05:54:37;17.60;99.90
10875;DHT22;5490;52.200;8.786;2022-07-06T05:57:08;17.70;99.90
10875;DHT22;5490;52.200;8.786;2022-07-06T05:59:35;17.70;99.90
10875;DHT22;5490;52.200;8.786;2022-07-06T06:02:03;17.70;99.90
10875;DHT22;5490;52.200;8.786;2022-07-06T06:04:40;17.80;99.90
10875;DHT22;5490;52.200;8.786;2022-07-06T06:07:34;17.80;99.90
10875;DHT22;5490;52.200;8.786;2022-07-06T06:10:19;17.80;99.90
10875;DHT22;5490;52.200;8.786;2022-07-06T06:12:50;17.90;99.90
10875;DHT22;5490;52.200;8.786;2022-07-06T06:15:17;17.90;99.90
10875;DHT22;5490;52.200;8.786;2022-07-06T06:18:06;17.90;99.90
10875;DHT22;5490;52.200;8.786;2022-07-06T06:21:07;17.90;99.90
10875;DHT22;5490;52.200;8.786;2022-07-06T06:23:35;18.00;99.90
10875;DHT22;5490;52.200;8.786;2022-07-06T06:29:29;18.20;99.90
10875;DHT22;5490;52.200;8.786;2022-07-06T06:31:59;18.30;99.90
10875;DHT22;5490;52.200;8.786;2022-07-06T06:34:26;18.40;99.90
10875;DHT22;5490;52.200;8.786;2022-07-06T06:39:58;18.60;99.90
10875;DHT22;5490;52.200;8.786;2022-07-06T06:42:40;18.70;99.90
10875;DHT22;5490;52.200;8.786;2022-07-06T06:45:10;18.80;99.90
10875;DHT22;5490;52.200;8.786;2022-07-06T06:47:39;18.90;99.90
10875;DHT22;5490;52.200;8.786;2022-07-06T06:50:07;19.00;99.90
10875;DHT22;5490;52.200;8.786;2022-07-06T06:52:54;19.10;99.90
10875;DHT22;5490;52.200;8.786;2022-07-06T06:55:48;19.20;99.90
10875;DHT22;5490;52.200;8.786;2022-07-06T06:58:20;19.30;99.90
10875;DHT22;5490;52.200;8.786;2022-07-06T07:00:48;19.50;99.90
10875;DHT22;5490;52.200;8.786;2022-07-06T07:03:15;19.50;99.90
10875;DHT22;5490;52.200;8.786;2022-07-06T07:05:41;19.60;99.90
10875;DHT22;5490;52.200;8.786;2022-07-06T07:08:08;19.70;99.90
10875;DHT22;5490;52.200;8.786;2022-07-06T07:10:35;19.80;99.90
10875;DHT22;5490;52.200;8.786;2022-07-06T07:13:02;19.80;99.90
10875;DHT22;5490;52.200;8.786;2022-07-06T07:15:30;19.90;99.90
10875;DHT22;5490;52.200;8.786;2022-07-06T07:17:59;20.00;99.90
10875;DHT22;5490;52.200;8.786;2022-07-06T07:20:26;20.10;99.90
10875;DHT22;5490;52.200;8.786;2022-07-06T07:22:55;20.20;99.90
10875;DHT22;5490;52.200;8.786;2022-07-06T07:25:22;20.20;99.90
10875;DHT22;5490;52.200;8.786;2022-07-06T07:27:50;20.20;99.90
10875;DHT22;5490;52.200;8.786;2022-07-06T07:30:17;20.00;99.90
10875;DHT22;5490;52.200;8.786;2022-07-06T07:32:45;19.90;99.90
10875;DHT22;5490;52.200;8.786;2022-07-06T07:35:13;20.10;99.90
10875;DHT22;5490;52.200;8.786;2022-07-06T07:37:41;20.30;99.90
10875;DHT22;5490;52.200;8.786;2022-07-06T07:40:08;20.50;99.90
10875;DHT22;5490;52.200;8.786;2022-07-06T07:42:35;20.70;99.90
10875;DHT22;5490;52.200;8.786;2022-07-06T07:45:07;20.50;99.90
10875;DHT22;5490;52.200;8.786;2022-07-06T07:47:36;20.30;99.90
10875;DHT22;5490;52.200;8.786;2022-07-06T07:50:04;20.30;99.70
10875;DHT22;5490;52.200;8.786;2022-07-06T07:52:33;20.40;99.90
10875;DHT22;5490;52.200;8.786;2022-07-06T07:54:59;20.40;99.90
10875;DHT22;5490;52.200;8.786;2022-07-06T07:57:26;20.60;99.90
10875;DHT22;5490;52.200;8.786;2022-07-06T07:59:53;20.50;99.80
10875;DHT22;5490;52.200;8.786;2022-07-06T08:02:20;20.50;99.60
10875;DHT22;5490;52.200;8.786;2022-07-06T08:04:47;20.40;99.70
10875;DHT22;5490;52.200;8.786;2022-07-06T08:07:14;20.40;99.90
10875;DHT22;5490;52.200;8.786;2022-07-06T08:09:42;20.40;99.90
10875;DHT22;5490;52.200;8.786;2022-07-06T08:12:09;20.40;99.90
10875;DHT22;5490;52.200;8.786;2022-07-06T08:14:36;20.40;99.90
10875;DHT22;5490;52.200;8.786;2022-07-06T08:17:03;20.60;99.90
10875;DHT22;5490;52.200;8.786;2022-07-06T08:19:30;20.80;99.30
10875;DHT22;5490;52.200;8.786;2022-07-06T08:21:57;21.00;98.50
10875;DHT22;5490;52.200;8.786;2022-07-06T08:24:24;21.10;98.20
10875;DHT22;5490;52.200;8.786;2022-07-06T08:26:52;21.20;96.60
10875;DHT22;5490;52.200;8.786;2022-07-06T08:29:19;21.50;95.90
10875;DHT22;5490;52.200;8.786;2022-07-06T08:31:45;21.70;96.10
10875;DHT22;5490;52.200;8.786;2022-07-06T08:34:12;21.80;97.00
10875;DHT22;5490;52.200;8.786;2022-07-06T08:36:39;22.00;96.80
10875;DHT22;5490;52.200;8.786;2022-07-06T08:39:06;22.20;95.90
10875;DHT22;5490;52.200;8.786;2022-07-06T08:41:35;22.40;95.70
10875;DHT22;5490;52.200;8.786;2022-07-06T08:44:08;22.60;94.60
10875;DHT22;5490;52.200;8.786;2022-07-06T08:47:02;22.80;93.60
10875;DHT22;5490;52.200;8.786;2022-07-06T08:49:32;23.00;93.40
10875;DHT22;5490;52.200;8.786;2022-07-06T08:52:00;23.00;93.10
10875;DHT22;5490;52.200;8.786;2022-07-06T08:54:31;23.10;94.00
10875;DHT22;5490;52.200;8.786;2022-07-06T08:57:05;23.30;93.60
10875;DHT22;5490;52.200;8.786;2022-07-06T08:59:33;23.50;93.20
10875;DHT22;5490;52.200;8.786;2022-07-06T09:02:00;23.50;91.50
10875;DHT22;5490;52.200;8.786;2022-07-06T09:04:37;23.30;91.00
10875;DHT22;5490;52.200;8.786;2022-07-06T09:07:10;23.20;90.70
10875;DHT22;5490;52.200;8.786;2022-07-06T09:09:40;23.10;90.50
10875;DHT22;5490;52.200;8.786;2022-07-06T09:12:12;22.90;90.40
10875;DHT22;5490;52.200;8.786;2022-07-06T09:14:41;22.70;90.50
10875;DHT22;5490;52.200;8.786;2022-07-06T09:17:07;22.50;90.60
10875;DHT22;5490;52.200;8.786;2022-07-06T09:19:35;22.30;90.20
10875;DHT22;5490;52.200;8.786;2022-07-06T09:22:03;22.40;91.10
10875;DHT22;5490;52.200;8.786;2022-07-06T09:24:30;22.50;91.10
10875;DHT22;5490;52.200;8.786;2022-07-06T09:26:58;22.80;91.30
10875;DHT22;5490;52.200;8.786;2022-07-06T09:29:30;23.00;90.60
10875;DHT22;5490;52.200;8.786;2022-07-06T09:31:59;23.20;91.20
10875;DHT22;5490;52.200;8.786;2022-07-06T09:34:40;23.60;92.50
10875;DHT22;5490;52.200;8.786;2022-07-06T09:37:07;24.30;92.60
10875;DHT22;5490;52.200;8.786;2022-07-06T09:39:34;24.90;89.40
10875;DHT22;5490;52.200;8.786;2022-07-06T09:42:02;25.20;86.40
10875;DHT22;5490;52.200;8.786;2022-07-06T09:44:30;25.20;86.10
10875;DHT22;5490;52.200;8.786;2022-07-06T09:47:00;25.10;83.80
10875;DHT22;5490;52.200;8.786;2022-07-06T09:49:28;24.90;83.00
10875;DHT22;5490;52.200;8.786;2022-07-06T09:51:57;24.50;81.70
10875;DHT22;5490;52.200;8.786;2022-07-06T09:54:24;24.00;82.50
10875;DHT22;5490;52.200;8.786;2022-07-06T09:56:52;23.70;83.90
10875;DHT22;5490;52.200;8.786;2022-07-06T09:59:21;23.30;84.60
10875;DHT22;5490;52.200;8.786;2022-07-06T10:01:51;23.10;83.00
10875;DHT22;5490;52.200;8.786;2022-07-06T10:04:21;22.70;85.10
10875;DHT22;5490;52.200;8.786;2022-07-06T10:06:48;22.50;85.70
10875;DHT22;5490;52.200;8.786;2022-07-06T10:09:15;22.10;84.60
10875;DHT22;5490;52.200;8.786;2022-07-06T10:11:47;21.90;86.70
10875;DHT22;5490;52.200;8.786;2022-07-06T10:14:17;21.80;86.60
10875;DHT22;5490;52.200;8.786;2022-07-06T10:16:45;21.60;85.70
10875;DHT22;5490;52.200;8.786;2022-07-06T10:19:14;21.60;85.80
10875;DHT22;5490;52.200;8.786;2022-07-06T10:21:43;21.50;86.70
10875;DHT22;5490;52.200;8.786;2022-07-06T10:24:10;21.60;88.00
10875;DHT22;5490;52.200;8.786;2022-07-06T10:26:38;21.60;87.00
10875;DHT22;5490;52.200;8.786;2022-07-06T10:29:16;21.70;87.60
10875;DHT22;5490;52.200;8.786;2022-07-06T10:32:00;21.80;88.60
10875;DHT22;5490;52.200;8.786;2022-07-06T10:35:13;21.90;88.40
10875;DHT22;5490;52.200;8.786;2022-07-06T10:41:42;22.50;90.20
10875;DHT22;5490;52.200;8.786;2022-07-06T10:44:15;22.90;90.10
10875;DHT22;5490;52.200;8.786;2022-07-06T10:46:52;23.10;90.00
10875;DHT22;5490;52.200;8.786;2022-07-06T10:49:20;23.20;89.10
10875;DHT22;5490;52.200;8.786;2022-07-06T10:51:48;23.30;89.20
10875;DHT22;5490;52.200;8.786;2022-07-06T10:54:25;23.50;89.50
10875;DHT22;5490;52.200;8.786;2022-07-06T10:57:16;23.60;88.80
10875;DHT22;5490;52.200;8.786;2022-07-06T11:00:00;23.70;88.10
10875;DHT22;5490;52.200;8.786;2022-07-06T11:02:51;23.70;87.80
10875;DHT22;5490;52.200;8.786;2022-07-06T11:05:41;23.70;88.20
10875;DHT22;5490;52.200;8.786;2022-07-06T11:08:14;23.70;87.10
10875;DHT22;5490;52.200;8.786;2022-07-06T11:10:47;23.70;87.60
10875;DHT22;5490;52.200;8.786;2022-07-06T11:13:28;23.60;85.70
10875;DHT22;5490;52.200;8.786;2022-07-06T11:16:01;23.60;86.40
10875;DHT22;5490;52.200;8.786;2022-07-06T11:18:32;23.60;86.80
10875;DHT22;5490;52.200;8.786;2022-07-06T11:21:18;23.50;86.30
10875;DHT22;5490;52.200;8.786;2022-07-06T11:23:47;23.50;87.10
10875;DHT22;5490;52.200;8.786;2022-07-06T11:26:14;23.50;87.50
10875;DHT22;5490;52.200;8.786;2022-07-06T11:28:45;23.40;88.50
10875;DHT22;5490;52.200;8.786;2022-07-06T11:31:15;23.40;87.50
10875;DHT22;5490;52.200;8.786;2022-07-06T11:33:46;23.30;86.20
10875;DHT22;5490;52.200;8.786;2022-07-06T11:36:15;23.20;86.40
